sensor_id;sensor_type;location;lat;lon;timestamp;P1;durP1;ratioP1;P2;durP2;ratioP2
43429;SDS011;29028;43.234;27.896;2022-08-03T04:02:11;4.35;;;3.58;;
43429;SDS011;29028;43.234;27.896;2022-08-03T04:02:33;4.00;;;3.60;;
43429;SDS011;29028;43.234;27.896;2022-08-03T04:02:54;3.85;;;3.45;;
43429;SDS011;29028;43.234;27.896;2022-08-03T04:03:14;6.30;;;3.53;;
43429;SDS011;29028;43.234;27.896;2022-08-03T04:03:35;3.95;;;3.55;;
43429;SDS011;29028;43.234;27.896;2022-08-03T04:03:56;5.35;;;3.40;;
43429;SDS011;29028;43.234;27.896;2022-08-03T04:04:38;6.13;;;3.75;;
43429;SDS011;29028;43.234;27.896;2022-08-03T04:05:17;4.50;;;3.42;;
43429;SDS011;29028;43.234;27.896;2022-08-03T04:05:57;3.90;;;3.50;;
43429;SDS011;29028;43.234;27.896;2022-08-03T04:06:51;5.38;;;3.55;;
43429;SDS011;29028;43.234;27.896;2022-08-03T04:07:34;5.13;;;3.60;;
43429;SDS011;29028;43.234;27.896;2022-08-03T04:08:20;4.70;;;3.30;;
43429;SDS011;29028;43.234;27.896;2022-08-03T04:09:00;4.18;;;3.50;;
43429;SDS011;29028;43.234;27.896;2022-08-03T04:09:35;4.05;;;3.65;;
43429;SDS011;29028;43.234;27.896;2022-08-03T04:10:17;4.55;;;3.67;;
43429;SDS011;29028;43.234;27.896;2022-08-03T04:11:02;4.93;;;3.65;;
43429;SDS011;29028;43.234;27.896;2022-08-03T04:11:30;3.90;;;3.50;;
43429;SDS011;29028;43.234;27.896;2022-08-03T04:11:57;5.23;;;3.57;;
43429;SDS011;29028;43.234;27.896;2022-08-03T04:12:20;4.70;;;3.78;;
43429;SDS011;29028;43.234;27.896;2022-08-03T04:12:44;5.28;;;3.85;;
43429;SDS011;29028;43.234;27.896;2022-08-03T04:13:09;4.57;;;3.67;;
43429;SDS011;29028;43.234;27.896;2022-08-03T04:13:36;4.43;;;3.47;;
43429;SDS011;29028;43.234;27.896;2022-08-03T04:13:59;3.95;;;3.50;;
43429;SDS011;29028;43.234;27.896;2022-08-03T04:14:27;4.40;;;3.40;;
43429;SDS011;29028;43.234;27.896;2022-08-03T04:14:52;5.10;;;3.47;;
43429;SDS011;29028;43.234;27.896;2022-08-03T04:15:17;3.80;;;3.40;;
43429;SDS011;29028;43.234;27.896;2022-08-03T04:15:40;4.78;;;3.58;;
43429;SDS011;29028;43.234;27.896;2022-08-03T04:16:02;4.10;;;3.63;;
43429;SDS011;29028;43.234;27.896;2022-08-03T04:16:25;4.50;;;3.88;;
43429;SDS011;29028;43.234;27.896;2022-08-03T04:16:51;4.57;;;3.78;;
43429;SDS011;29028;43.234;27.896;2022-08-03T04:17:17;4.75;;;3.72;;
43429;SDS011;29028;43.234;27.896;2022-08-03T04:17:38;4.85;;;3.33;;
43429;SDS011;29028;43.234;27.896;2022-08-03T04:18:01;5.13;;;3.60;;
43429;SDS011;29028;43.234;27.896;2022-08-03T04:18:28;6.95;;;3.92;;
43429;SDS011;29028;43.234;27.896;2022-08-03T04:18:51;4.53;;;3.92;;
43429;SDS011;29028;43.234;27.896;2022-08-03T04:19:16;5.20;;;3.75;;
43429;SDS011;29028;43.234;27.896;2022-08-03T04:19:41;6.18;;;3.72;;
43429;SDS011;29028;43.234;27.896;2022-08-03T04:20:04;3.95;;;3.42;;
43429;SDS011;29028;43.234;27.896;2022-08-03T04:20:27;7.45;;;3.80;;
43429;SDS011;29028;43.234;27.896;2022-08-03T04:20:50;6.47;;;3.92;;
43429;SDS011;29028;43.234;27.896;2022-08-03T04:21:14;5.40;;;3.90;;
43429;SDS011;29028;43.234;27.896;2022-08-03T04:21:37;4.10;;;3.40;;
43429;SDS011;29028;43.234;27.896;2022-08-03T04:22:03;4.63;;;3.50;;
43429;SDS011;29028;43.234;27.896;2022-08-03T04:22:28;4.85;;;3.50;;
43429;SDS011;29028;43.234;27.896;2022-08-03T04:22:51;4.80;;;3.50;;
43429;SDS011;29028;43.234;27.896;2022-08-03T04:23:16;3.85;;;3.45;;
43429;SDS011;29028;43.234;27.896;2022-08-03T04:23:42;5.30;;;3.47;;
43429;SDS011;29028;43.234;27.896;2022-08-03T04:24:07;4.75;;;3.95;;
43429;SDS011;29028;43.234;27.896;2022-08-03T04:24:31;5.90;;;4.90;;
43429;SDS011;29028;43.234;27.896;2022-08-03T04:24:56;5.95;;;4.03;;
43429;SDS011;29028;43.234;27.896;2022-08-03T04:25:22;4.68;;;3.55;;
43429;SDS011;29028;43.234;27.896;2022-08-03T04:25:48;4.10;;;3.40;;
43429;SDS011;29028;43.234;27.896;2022-08-03T04:26:11;4.43;;;3.80;;
43429;SDS011;29028;43.234;27.896;2022-08-03T04:26:35;4.07;;;3.60;;
43429;SDS011;29028;43.234;27.896;2022-08-03T04:27:00;7.72;;;3.50;;
43429;SDS011;29028;43.234;27.896;2022-08-03T04:27:24;4.00;;;3.50;;
43429;SDS011;29028;43.234;27.896;2022-08-03T04:27:50;4.13;;;3.70;;
43429;SDS011;29028;43.234;27.896;2022-08-03T04:28:14;4.53;;;3.50;;
43429;SDS011;29028;43.234;27.896;2022-08-03T04:28:36;4.30;;;3.90;;
43429;SDS011;29028;43.234;27.896;2022-08-03T04:28:59;5.10;;;3.80;;
43429;SDS011;29028;43.234;27.896;2022-08-03T04:29:21;5.68;;;3.65;;
43429;SDS011;29028;43.234;27.896;2022-08-03T04:29:46;6.25;;;3.55;;
43429;SDS011;29028;43.234;27.896;2022-08-03T04:30:11;5.10;;;3.42;;
43429;SDS011;29028;43.234;27.896;2022-08-03T04:30:35;4.72;;;3.50;;
43429;SDS011;29028;43.234;27.896;2022-08-03T04:30:58;5.65;;;3.47;;
43429;SDS011;29028;43.234;27.896;2022-08-03T04:31:20;4.82;;;3.55;;
43429;SDS011;29028;43.234;27.896;2022-08-03T04:31:44;4.32;;;3.42;;
43429;SDS011;29028;43.234;27.896;2022-08-03T04:32:06;5.43;;;3.67;;
43429;SDS011;29028;43.234;27.896;2022-08-03T04:32:29;4.18;;;3.55;;
43429;SDS011;29028;43.234;27.896;2022-08-03T04:32:51;5.00;;;3.60;;
43429;SDS011;29028;43.234;27.896;2022-08-03T04:33:14;4.97;;;3.30;;
43429;SDS011;29028;43.234;27.896;2022-08-03T04:33:37;4.50;;;3.30;;
43429;SDS011;29028;43.234;27.896;2022-08-03T04:33:58;3.92;;;3.50;;
43429;SDS011;29028;43.234;27.896;2022-08-03T04:34:20;3.60;;;3.30;;
43429;SDS011;29028;43.234;27.896;2022-08-03T04:34:42;4.05;;;3.47;;
43429;SDS011;29028;43.234;27.896;2022-08-03T04:35:03;5.57;;;3.72;;
43429;SDS011;29028;43.234;27.896;2022-08-03T04:35:26;3.83;;;3.30;;
43429;SDS011;29028;43.234;27.896;2022-08-03T04:35:50;5.18;;;3.67;;
43429;SDS011;29028;43.234;27.896;2022-08-03T04:36:15;6.25;;;3.58;;
43429;SDS011;29028;43.234;27.896;2022-08-03T04:36:43;5.50;;;3.70;;
43429;SDS011;29028;43.234;27.896;2022-08-03T04:37:10;5.03;;;3.20;;
43429;SDS011;29028;43.234;27.896;2022-08-03T04:37:34;7.78;;;3.53;;
43429;SDS011;29028;43.234;27.896;2022-08-03T04:38:01;9.40;;;3.75;;
43429;SDS011;29028;43.234;27.896;2022-08-03T04:38:25;5.45;;;3.85;;
43429;SDS011;29028;43.234;27.896;2022-08-03T04:38:55;6.30;;;3.85;;
43429;SDS011;29028;43.234;27.896;2022-08-03T04:39:22;10.70;;;6.28;;
43429;SDS011;29028;43.234;27.896;2022-08-03T04:39:45;12.55;;;7.32;;
43429;SDS011;29028;43.234;27.896;2022-08-03T04:40:09;13.93;;;9.30;;
43429;SDS011;29028;43.234;27.896;2022-08-03T04:40:34;9.82;;;6.10;;
43429;SDS011;29028;43.234;27.896;2022-08-03T04:40:58;5.40;;;3.70;;
43429;SDS011;29028;43.234;27.896;2022-08-03T04:41:21;6.82;;;5.05;;
43429;SDS011;29028;43.234;27.896;2022-08-03T04:41:45;9.65;;;6.55;;
43429;SDS011;29028;43.234;27.896;2022-08-03T04:42:09;6.00;;;4.33;;
43429;SDS011;29028;43.234;27.896;2022-08-03T04:42:32;6.38;;;4.35;;
43429;SDS011;29028;43.234;27.896;2022-08-03T04:42:54;4.97;;;3.65;;
43429;SDS011;29028;43.234;27.896;2022-08-03T04:43:15;7.35;;;4.60;;
43429;SDS011;29028;43.234;27.896;2022-08-03T04:43:39;8.00;;;4.72;;
43429;SDS011;29028;43.234;27.896;2022-08-03T04:44:00;7.03;;;4.45;;
43429;SDS011;29028;43.234;27.896;2022-08-03T04:44:25;5.32;;;3.63;;
43429;SDS011;29028;43.234;27.896;2022-08-03T04:44:47;5.10;;;4.03;;
43429;SDS011;29028;43.234;27.896;2022-08-03T04:45:10;5.90;;;4.20;;
43429;SDS011;29028;43.234;27.896;2022-08-03T04:45:32;4.70;;;4.00;;
43429;SDS011;29028;43.234;27.896;2022-08-03T04:45:54;7.28;;;4.38;;
43429;SDS011;29028;43.234;27.896;2022-08-03T04:46:16;7.72;;;4.00;;
43429;SDS011;29028;43.234;27.896;2022-08-03T04:46:38;6.30;;;4.28;;
43429;SDS011;29028;43.234;27.896;2022-08-03T04:46:59;5.88;;;4.43;;
43429;SDS011;29028;43.234;27.896;2022-08-03T04:47:22;6.57;;;4.38;;
43429;SDS011;29028;43.234;27.896;2022-08-03T04:47:44;7.30;;;4.63;;
43429;SDS011;29028;43.234;27.896;2022-08-03T04:48:06;7.40;;;4.82;;
43429;SDS011;29028;43.234;27.896;2022-08-03T04:48:27;6.10;;;4.20;;
43429;SDS011;29028;43.234;27.896;2022-08-03T04:48:49;4.97;;;4.10;;
43429;SDS011;29028;43.234;27.896;2022-08-03T04:49:11;5.40;;;4.28;;
43429;SDS011;29028;43.234;27.896;2022-08-03T04:49:32;5.57;;;4.38;;
43429;SDS011;29028;43.234;27.896;2022-08-03T04:49:55;5.07;;;4.22;;
43429;SDS011;29028;43.234;27.896;2022-08-03T04:50:17;4.88;;;4.07;;
43429;SDS011;29028;43.234;27.896;2022-08-03T04:50:39;5.32;;;4.10;;
43429;SDS011;29028;43.234;27.896;2022-08-03T04:51:00;6.28;;;3.95;;
43429;SDS011;29028;43.234;27.896;2022-08-03T04:51:23;5.25;;;4.20;;
43429;SDS011;29028;43.234;27.896;2022-08-03T04:51:49;8.38;;;5.35;;
43429;SDS011;29028;43.234;27.896;2022-08-03T04:52:10;7.88;;;5.22;;
43429;SDS011;29028;43.234;27.896;2022-08-03T04:52:31;5.30;;;4.35;;
43429;SDS011;29028;43.234;27.896;2022-08-03T04:52:54;6.13;;;4.97;;
43429;SDS011;29028;43.234;27.896;2022-08-03T04:53:16;6.35;;;4.80;;
43429;SDS011;29028;43.234;27.896;2022-08-03T04:53:37;7.05;;;4.20;;
43429;SDS011;29028;43.234;27.896;2022-08-03T04:53:58;5.93;;;4.00;;
43429;SDS011;29028;43.234;27.896;2022-08-03T04:54:19;5.65;;;3.83;;
43429;SDS011;29028;43.234;27.896;2022-08-03T04:54:41;6.45;;;4.05;;
43429;SDS011;29028;43.234;27.896;2022-08-03T04:55:02;6.65;;;4.32;;
43429;SDS011;29028;43.234;27.896;2022-08-03T04:55:24;5.78;;;3.78;;
43429;SDS011;29028;43.234;27.896;2022-08-03T04:55:46;6.68;;;3.80;;
43429;SDS011;29028;43.234;27.896;2022-08-03T04:56:08;5.70;;;3.80;;
43429;SDS011;29028;43.234;27.896;2022-08-03T04:56:29;6.00;;;3.80;;
43429;SDS011;29028;43.234;27.896;2022-08-03T04:56:50;6.60;;;4.00;;
43429;SDS011;29028;43.234;27.896;2022-08-03T04:57:10;6.05;;;3.83;;
43429;SDS011;29028;43.234;27.896;2022-08-03T04:57:31;7.07;;;4.10;;
43429;SDS011;29028;43.234;27.896;2022-08-03T04:57:53;7.13;;;4.22;;
43429;SDS011;29028;43.234;27.896;2022-08-03T04:58:14;5.38;;;3.83;;
43429;SDS011;29028;43.234;27.896;2022-08-03T04:58:35;5.93;;;4.13;;
43429;SDS011;29028;43.234;27.896;2022-08-03T04:58:56;5.50;;;3.70;;
43429;SDS011;29028;43.234;27.896;2022-08-03T04:59:17;4.85;;;3.85;;
43429;SDS011;29028;43.234;27.896;2022-08-03T04:59:38;4.82;;;3.83;;
43429;SDS011;29028;43.234;27.896;2022-08-03T04:59:59;4.65;;;3.70;;
43429;SDS011;29028;43.234;27.896;2022-08-03T05:00:21;6.75;;;4.10;;
43429;SDS011;29028;43.234;27.896;2022-08-03T05:00:43;6.05;;;3.92;;
43429;SDS011;29028;43.234;27.896;2022-08-03T05:01:04;4.45;;;3.78;;
43429;SDS011;29028;43.234;27.896;2022-08-03T05:01:25;4.88;;;3.42;;
43429;SDS011;29028;43.234;27.896;2022-08-03T05:01:46;4.13;;;3.47;;
43429;SDS011;29028;43.234;27.896;2022-08-03T05:02:08;5.53;;;3.70;;
43429;SDS011;29028;43.234;27.896;2022-08-03T05:02:29;6.13;;;3.95;;
43429;SDS011;29028;43.234;27.896;2022-08-03T05:02:52;7.03;;;3.88;;
43429;SDS011;29028;43.234;27.896;2022-08-03T05:03:13;5.55;;;3.30;;
43429;SDS011;29028;43.234;27.896;2022-08-03T05:03:34;4.60;;;3.37;;
43429;SDS011;29028;43.234;27.896;2022-08-03T05:03:55;5.00;;;3.60;;
43429;SDS011;29028;43.234;27.896;2022-08-03T05:04:16;5.55;;;3.40;;
43429;SDS011;29028;43.234;27.896;2022-08-03T05:04:38;5.47;;;3.53;;
43429;SDS011;29028;43.234;27.896;2022-08-03T05:05:01;4.88;;;3.60;;
43429;SDS011;29028;43.234;27.896;2022-08-03T05:05:24;5.15;;;3.42;;
43429;SDS011;29028;43.234;27.896;2022-08-03T05:05:44;7.15;;;3.40;;
43429;SDS011;29028;43.234;27.896;2022-08-03T05:06:05;7.13;;;3.72;;
43429;SDS011;29028;43.234;27.896;2022-08-03T05:06:26;5.53;;;3.90;;
43429;SDS011;29028;43.234;27.896;2022-08-03T05:06:48;6.00;;;3.92;;
43429;SDS011;29028;43.234;27.896;2022-08-03T05:07:09;5.45;;;3.75;;
43429;SDS011;29028;43.234;27.896;2022-08-03T05:07:30;5.47;;;3.53;;
43429;SDS011;29028;43.234;27.896;2022-08-03T05:07:51;4.90;;;3.37;;
43429;SDS011;29028;43.234;27.896;2022-08-03T05:08:13;4.70;;;3.45;;
43429;SDS011;29028;43.234;27.896;2022-08-03T05:08:33;5.80;;;3.88;;
43429;SDS011;29028;43.234;27.896;2022-08-03T05:08:54;4.43;;;2.97;;
43429;SDS011;29028;43.234;27.896;2022-08-03T05:09:15;5.15;;;3.40;;
43429;SDS011;29028;43.234;27.896;2022-08-03T05:09:36;6.63;;;3.70;;
43429;SDS011;29028;43.234;27.896;2022-08-03T05:09:58;6.65;;;3.40;;
43429;SDS011;29028;43.234;27.896;2022-08-03T05:10:19;6.37;;;3.30;;
43429;SDS011;29028;43.234;27.896;2022-08-03T05:10:40;5.63;;;3.05;;
43429;SDS011;29028;43.234;27.896;2022-08-03T05:11:01;4.07;;;3.00;;
43429;SDS011;29028;43.234;27.896;2022-08-03T05:11:21;3.45;;;3.00;;
43429;SDS011;29028;43.234;27.896;2022-08-03T05:11:43;5.20;;;2.93;;
43429;SDS011;29028;43.234;27.896;2022-08-03T05:12:04;4.90;;;3.05;;
43429;SDS011;29028;43.234;27.896;2022-08-03T05:12:25;6.15;;;3.42;;
43429;SDS011;29028;43.234;27.896;2022-08-03T05:12:47;7.53;;;4.00;;
43429;SDS011;29028;43.234;27.896;2022-08-03T05:13:08;6.45;;;3.90;;
43429;SDS011;29028;43.234;27.896;2022-08-03T05:13:31;5.28;;;3.42;;
43429;SDS011;29028;43.234;27.896;2022-08-03T05:13:52;5.32;;;3.45;;
43429;SDS011;29028;43.234;27.896;2022-08-03T05:14:13;7.00;;;3.60;;
43429;SDS011;29028;43.234;27.896;2022-08-03T05:14:34;7.55;;;3.58;;
43429;SDS011;29028;43.234;27.896;2022-08-03T05:14:57;5.60;;;3.20;;
43429;SDS011;29028;43.234;27.896;2022-08-03T05:15:19;5.03;;;3.17;;
43429;SDS011;29028;43.234;27.896;2022-08-03T05:15:39;6.03;;;3.45;;
43429;SDS011;29028;43.234;27.896;2022-08-03T05:16:01;6.82;;;3.42;;
43429;SDS011;29028;43.234;27.896;2022-08-03T05:16:26;8.30;;;3.60;;
43429;SDS011;29028;43.234;27.896;2022-08-03T05:16:46;6.00;;;3.47;;
43429;SDS011;29028;43.234;27.896;2022-08-03T05:17:07;4.25;;;3.03;;
43429;SDS011;29028;43.234;27.896;2022-08-03T05:17:28;4.47;;;3.22;;
43429;SDS011;29028;43.234;27.896;2022-08-03T05:17:51;4.60;;;3.47;;
43429;SDS011;29028;43.234;27.896;2022-08-03T05:18:12;3.85;;;3.03;;
43429;SDS011;29028;43.234;27.896;2022-08-03T05:18:40;4.80;;;3.13;;
43429;SDS011;29028;43.234;27.896;2022-08-03T05:19:03;4.50;;;3.10;;
43429;SDS011;29028;43.234;27.896;2022-08-03T05:19:23;3.92;;;3.05;;
43429;SDS011;29028;43.234;27.896;2022-08-03T05:19:44;4.07;;;3.10;;
43429;SDS011;29028;43.234;27.896;2022-08-03T05:20:05;4.15;;;3.00;;
43429;SDS011;29028;43.234;27.896;2022-08-03T05:20:27;4.85;;;2.95;;
43429;SDS011;29028;43.234;27.896;2022-08-03T05:20:49;4.65;;;3.40;;
43429;SDS011;29028;43.234;27.896;2022-08-03T05:21:10;4.78;;;3.25;;
43429;SDS011;29028;43.234;27.896;2022-08-03T05:21:33;5.78;;;3.40;;
43429;SDS011;29028;43.234;27.896;2022-08-03T05:21:54;4.35;;;2.83;;
43429;SDS011;29028;43.234;27.896;2022-08-03T05:22:15;4.72;;;2.70;;
43429;SDS011;29028;43.234;27.896;2022-08-03T05:22:36;3.50;;;2.65;;
43429;SDS011;29028;43.234;27.896;2022-08-03T05:22:57;3.38;;;2.90;;
43429;SDS011;29028;43.234;27.896;2022-08-03T05:23:20;5.50;;;3.00;;
43429;SDS011;29028;43.234;27.896;2022-08-03T05:23:41;6.28;;;2.83;;
43429;SDS011;29028;43.234;27.896;2022-08-03T05:24:02;4.70;;;3.00;;
43429;SDS011;29028;43.234;27.896;2022-08-03T05:24:23;4.60;;;3.00;;
43429;SDS011;29028;43.234;27.896;2022-08-03T05:24:44;5.60;;;3.33;;
43429;SDS011;29028;43.234;27.896;2022-08-03T05:25:06;5.30;;;3.20;;
43429;SDS011;29028;43.234;27.896;2022-08-03T05:25:27;3.20;;;2.90;;
43429;SDS011;29028;43.234;27.896;2022-08-03T05:25:48;5.63;;;2.88;;
43429;SDS011;29028;43.234;27.896;2022-08-03T05:26:09;6.83;;;2.90;;
43429;SDS011;29028;43.234;27.896;2022-08-03T05:26:31;4.57;;;3.00;;
43429;SDS011;29028;43.234;27.896;2022-08-03T05:26:52;3.53;;;2.97;;
43429;SDS011;29028;43.234;27.896;2022-08-03T05:27:13;3.72;;;2.80;;
43429;SDS011;29028;43.234;27.896;2022-08-03T05:27:38;5.25;;;3.42;;
43429;SDS011;29028;43.234;27.896;2022-08-03T05:28:00;5.13;;;3.28;;
43429;SDS011;29028;43.234;27.896;2022-08-03T05:28:20;3.50;;;2.90;;
43429;SDS011;29028;43.234;27.896;2022-08-03T05:28:42;4.30;;;2.90;;
43429;SDS011;29028;43.234;27.896;2022-08-03T05:29:02;7.13;;;5.60;;
43429;SDS011;29028;43.234;27.896;2022-08-03T05:29:24;7.55;;;5.55;;
43429;SDS011;29028;43.234;27.896;2022-08-03T05:29:45;5.73;;;3.17;;
43429;SDS011;29028;43.234;27.896;2022-08-03T05:30:07;5.88;;;3.45;;
43429;SDS011;29028;43.234;27.896;2022-08-03T05:30:28;4.30;;;3.13;;
43429;SDS011;29028;43.234;27.896;2022-08-03T05:30:51;3.65;;;2.88;;
43429;SDS011;29028;43.234;27.896;2022-08-03T05:31:11;3.92;;;2.80;;
43429;SDS011;29028;43.234;27.896;2022-08-03T05:31:32;4.50;;;2.83;;
43429;SDS011;29028;43.234;27.896;2022-08-03T05:31:53;4.50;;;3.00;;
43429;SDS011;29028;43.234;27.896;2022-08-03T05:32:16;3.53;;;2.75;;
43429;SDS011;29028;43.234;27.896;2022-08-03T05:32:37;4.55;;;3.03;;
43429;SDS011;29028;43.234;27.896;2022-08-03T05:32:59;5.18;;;2.95;;
43429;SDS011;29028;43.234;27.896;2022-08-03T05:33:20;5.82;;;2.75;;
43429;SDS011;29028;43.234;27.896;2022-08-03T05:33:42;6.53;;;3.40;;
43429;SDS011;29028;43.234;27.896;2022-08-03T05:34:03;5.15;;;3.20;;
43429;SDS011;29028;43.234;27.896;2022-08-03T05:34:24;5.07;;;3.28;;
43429;SDS011;29028;43.234;27.896;2022-08-03T05:34:46;4.68;;;2.90;;
43429;SDS011;29028;43.234;27.896;2022-08-03T05:35:07;5.18;;;3.10;;
43429;SDS011;29028;43.234;27.896;2022-08-03T05:35:28;4.90;;;2.95;;
43429;SDS011;29028;43.234;27.896;2022-08-03T05:35:50;4.40;;;2.50;;
43429;SDS011;29028;43.234;27.896;2022-08-03T05:36:11;4.25;;;2.95;;
43429;SDS011;29028;43.234;27.896;2022-08-03T05:36:32;3.60;;;2.90;;
43429;SDS011;29028;43.234;27.896;2022-08-03T05:36:53;3.58;;;2.65;;
43429;SDS011;29028;43.234;27.896;2022-08-03T05:37:14;5.18;;;2.60;;
43429;SDS011;29028;43.234;27.896;2022-08-03T05:37:35;4.10;;;2.50;;
43429;SDS011;29028;43.234;27.896;2022-08-03T05:37:56;4.57;;;2.70;;
43429;SDS011;29028;43.234;27.896;2022-08-03T05:38:17;4.05;;;2.60;;
43429;SDS011;29028;43.234;27.896;2022-08-03T05:38:39;4.85;;;3.78;;
43429;SDS011;29028;43.234;27.896;2022-08-03T05:38:59;3.92;;;3.38;;
43429;SDS011;29028;43.234;27.896;2022-08-03T05:39:21;3.60;;;2.80;;
43429;SDS011;29028;43.234;27.896;2022-08-03T05:39:42;3.85;;;2.90;;
43429;SDS011;29028;43.234;27.896;2022-08-03T05:40:03;3.55;;;2.90;;
43429;SDS011;29028;43.234;27.896;2022-08-03T05:40:25;3.85;;;2.85;;
43429;SDS011;29028;43.234;27.896;2022-08-03T05:40:47;4.28;;;2.95;;
43429;SDS011;29028;43.234;27.896;2022-08-03T05:41:08;3.60;;;2.50;;
43429;SDS011;29028;43.234;27.896;2022-08-03T05:41:28;4.00;;;2.53;;
43429;SDS011;29028;43.234;27.896;2022-08-03T05:41:49;5.85;;;2.53;;
43429;SDS011;29028;43.234;27.896;2022-08-03T05:42:13;7.22;;;2.65;;
43429;SDS011;29028;43.234;27.896;2022-08-03T05:42:35;4.43;;;2.63;;
43429;SDS011;29028;43.234;27.896;2022-08-03T05:42:57;2.55;;;2.35;;
43429;SDS011;29028;43.234;27.896;2022-08-03T05:43:18;4.30;;;2.42;;
43429;SDS011;29028;43.234;27.896;2022-08-03T05:43:40;4.63;;;2.47;;
43429;SDS011;29028;43.234;27.896;2022-08-03T05:44:01;4.03;;;2.38;;
43429;SDS011;29028;43.234;27.896;2022-08-03T05:44:22;4.40;;;2.42;;
43429;SDS011;29028;43.234;27.896;2022-08-03T05:44:45;4.15;;;2.50;;
43429;SDS011;29028;43.234;27.896;2022-08-03T05:45:06;3.70;;;2.50;;
43429;SDS011;29028;43.234;27.896;2022-08-03T05:45:33;2.75;;;2.30;;
43429;SDS011;29028;43.234;27.896;2022-08-03T05:45:56;3.00;;;2.42;;
43429;SDS011;29028;43.234;27.896;2022-08-03T05:46:18;5.10;;;2.80;;
43429;SDS011;29028;43.234;27.896;2022-08-03T05:46:39;4.70;;;2.80;;
43429;SDS011;29028;43.234;27.896;2022-08-03T05:47:00;4.00;;;2.60;;
43429;SDS011;29028;43.234;27.896;2022-08-03T05:47:21;3.75;;;2.67;;
43429;SDS011;29028;43.234;27.896;2022-08-03T05:47:47;6.07;;;2.70;;
43429;SDS011;29028;43.234;27.896;2022-08-03T05:48:11;4.32;;;2.80;;
43429;SDS011;29028;43.234;27.896;2022-08-03T05:48:32;4.15;;;2.58;;
43429;SDS011;29028;43.234;27.896;2022-08-03T05:48:53;3.15;;;2.50;;
43429;SDS011;29028;43.234;27.896;2022-08-03T05:49:14;3.65;;;2.40;;
43429;SDS011;29028;43.234;27.896;2022-08-03T05:49:35;5.03;;;2.60;;
43429;SDS011;29028;43.234;27.896;2022-08-03T05:49:56;3.50;;;2.53;;
43429;SDS011;29028;43.234;27.896;2022-08-03T05:50:18;4.32;;;2.58;;
43429;SDS011;29028;43.234;27.896;2022-08-03T05:50:39;3.17;;;2.20;;
43429;SDS011;29028;43.234;27.896;2022-08-03T05:51:01;2.67;;;2.15;;
43429;SDS011;29028;43.234;27.896;2022-08-03T05:51:24;3.80;;;2.38;;
43429;SDS011;29028;43.234;27.896;2022-08-03T05:51:45;3.42;;;2.40;;
43429;SDS011;29028;43.234;27.896;2022-08-03T05:52:06;3.22;;;2.28;;
43429;SDS011;29028;43.234;27.896;2022-08-03T05:52:28;3.00;;;2.25;;
43429;SDS011;29028;43.234;27.896;2022-08-03T05:52:49;4.60;;;2.53;;
43429;SDS011;29028;43.234;27.896;2022-08-03T05:53:10;4.40;;;2.50;;
43429;SDS011;29028;43.234;27.896;2022-08-03T05:53:31;4.35;;;2.40;;
43429;SDS011;29028;43.234;27.896;2022-08-03T05:53:53;3.70;;;2.22;;
43429;SDS011;29028;43.234;27.896;2022-08-03T05:54:14;3.13;;;2.22;;
43429;SDS011;29028;43.234;27.896;2022-08-03T05:54:35;4.30;;;2.20;;
43429;SDS011;29028;43.234;27.896;2022-08-03T05:54:56;4.32;;;2.30;;
43429;SDS011;29028;43.234;27.896;2022-08-03T05:55:17;3.88;;;2.20;;
43429;SDS011;29028;43.234;27.896;2022-08-03T05:55:38;3.47;;;2.40;;
43429;SDS011;29028;43.234;27.896;2022-08-03T05:56:00;5.75;;;2.30;;
43429;SDS011;29028;43.234;27.896;2022-08-03T05:56:21;3.80;;;2.15;;
43429;SDS011;29028;43.234;27.896;2022-08-03T05:56:43;3.90;;;2.47;;
43429;SDS011;29028;43.234;27.896;2022-08-03T05:57:04;2.97;;;2.30;;
43429;SDS011;29028;43.234;27.896;2022-08-03T05:57:25;3.47;;;2.53;;
43429;SDS011;29028;43.234;27.896;2022-08-03T05:57:46;3.50;;;2.47;;
43429;SDS011;29028;43.234;27.896;2022-08-03T05:58:07;3.10;;;2.40;;
43429;SDS011;29028;43.234;27.896;2022-08-03T05:58:28;3.20;;;2.30;;
43429;SDS011;29028;43.234;27.896;2022-08-03T05:58:50;4.55;;;2.50;;
43429;SDS011;29028;43.234;27.896;2022-08-03T05:59:12;5.17;;;2.60;;
43429;SDS011;29028;43.234;27.896;2022-08-03T05:59:33;5.15;;;2.30;;
43429;SDS011;29028;43.234;27.896;2022-08-03T05:59:54;4.30;;;2.50;;
43429;SDS011;29028;43.234;27.896;2022-08-03T06:00:15;3.83;;;2.20;;
43429;SDS011;29028;43.234;27.896;2022-08-03T06:00:37;3.38;;;2.33;;
43429;SDS011;29028;43.234;27.896;2022-08-03T06:00:58;3.40;;;2.60;;
43429;SDS011;29028;43.234;27.896;2022-08-03T06:01:20;2.63;;;2.20;;
43429;SDS011;29028;43.234;27.896;2022-08-03T06:01:41;2.95;;;2.40;;
43429;SDS011;29028;43.234;27.896;2022-08-03T06:02:02;2.83;;;2.53;;
43429;SDS011;29028;43.234;27.896;2022-08-03T06:02:23;3.80;;;2.60;;
43429;SDS011;29028;43.234;27.896;2022-08-03T06:02:44;3.13;;;2.53;;
43429;SDS011;29028;43.234;27.896;2022-08-03T06:03:05;4.05;;;2.30;;
43429;SDS011;29028;43.234;27.896;2022-08-03T06:03:28;3.78;;;2.22;;
43429;SDS011;29028;43.234;27.896;2022-08-03T06:03:49;2.83;;;2.30;;
43429;SDS011;29028;43.234;27.896;2022-08-03T06:04:11;4.68;;;2.50;;
43429;SDS011;29028;43.234;27.896;2022-08-03T06:04:32;3.78;;;2.25;;
43429;SDS011;29028;43.234;27.896;2022-08-03T06:04:53;4.10;;;2.30;;
43429;SDS011;29028;43.234;27.896;2022-08-03T06:05:14;3.67;;;2.30;;
43429;SDS011;29028;43.234;27.896;2022-08-03T06:05:35;3.38;;;2.30;;
43429;SDS011;29028;43.234;27.896;2022-08-03T06:05:56;3.13;;;2.30;;
43429;SDS011;29028;43.234;27.896;2022-08-03T06:06:18;2.50;;;2.30;;
43429;SDS011;29028;43.234;27.896;2022-08-03T06:06:39;3.70;;;2.30;;
43429;SDS011;29028;43.234;27.896;2022-08-03T06:07:01;3.97;;;2.40;;
43429;SDS011;29028;43.234;27.896;2022-08-03T06:07:23;4.15;;;2.20;;
43429;SDS011;29028;43.234;27.896;2022-08-03T06:07:43;4.32;;;2.30;;
43429;SDS011;29028;43.234;27.896;2022-08-03T06:08:05;3.88;;;2.15;;
43429;SDS011;29028;43.234;27.896;2022-08-03T06:08:27;3.30;;;2.30;;
43429;SDS011;29028;43.234;27.896;2022-08-03T06:08:48;3.13;;;2.30;;
43429;SDS011;29028;43.234;27.896;2022-08-03T06:09:09;2.75;;;2.30;;
43429;SDS011;29028;43.234;27.896;2022-08-03T06:09:30;3.75;;;2.30;;
43429;SDS011;29028;43.234;27.896;2022-08-03T06:09:51;3.25;;;2.50;;
43429;SDS011;29028;43.234;27.896;2022-08-03T06:10:13;4.38;;;2.60;;
43429;SDS011;29028;43.234;27.896;2022-08-03T06:10:34;3.70;;;2.42;;
43429;SDS011;29028;43.234;27.896;2022-08-03T06:10:55;4.70;;;2.30;;
43429;SDS011;29028;43.234;27.896;2022-08-03T06:11:16;2.95;;;2.25;;
43429;SDS011;29028;43.234;27.896;2022-08-03T06:11:38;3.75;;;2.30;;
43429;SDS011;29028;43.234;27.896;2022-08-03T06:11:59;3.55;;;2.38;;
43429;SDS011;29028;43.234;27.896;2022-08-03T06:12:20;2.87;;;2.17;;
43429;SDS011;29028;43.234;27.896;2022-08-03T06:12:41;2.40;;;2.13;;
43429;SDS011;29028;43.234;27.896;2022-08-03T06:13:01;3.08;;;2.28;;
43429;SDS011;29028;43.234;27.896;2022-08-03T06:13:23;3.38;;;2.35;;
43429;SDS011;29028;43.234;27.896;2022-08-03T06:13:44;4.35;;;2.63;;
43429;SDS011;29028;43.234;27.896;2022-08-03T06:14:05;3.00;;;2.55;;
43429;SDS011;29028;43.234;27.896;2022-08-03T06:14:26;2.57;;;2.07;;
43429;SDS011;29028;43.234;27.896;2022-08-03T06:14:48;3.22;;;2.17;;
43429;SDS011;29028;43.234;27.896;2022-08-03T06:15:09;2.95;;;2.03;;
43429;SDS011;29028;43.234;27.896;2022-08-03T06:15:30;4.00;;;2.00;;
43429;SDS011;29028;43.234;27.896;2022-08-03T06:15:52;4.05;;;2.20;;
43429;SDS011;29028;43.234;27.896;2022-08-03T06:16:14;3.50;;;2.28;;
43429;SDS011;29028;43.234;27.896;2022-08-03T06:16:35;3.00;;;2.20;;